sensor_id;sensor_type;location;lat;lon;timestamp;P1;durP1;ratioP1;P2;durP2;ratioP2
43311;SDS011;30041;48.300;16.352;2022-09-09T00:03:43;1.75;;;0.25;;
43311;SDS011;30041;48.300;16.352;2022-09-09T00:06:23;0.00;;;0.00;;
43311;SDS011;30041;48.300;16.352;2022-09-09T00:09:00;1.35;;;0.25;;
43311;SDS011;30041;48.300;16.352;2022-09-09T00:17:23;0.73;;;0.35;;
43311;SDS011;30041;48.300;16.352;2022-09-09T00:20:03;0.80;;;0.22;;
43311;SDS011;30041;48.300;16.352;2022-09-09T00:22:37;1.23;;;0.20;;
43311;SDS011;30041;48.300;16.352;2022-09-09T00:28:19;0.80;;;0.20;;
43311;SDS011;30041;48.300;16.352;2022-09-09T00:30:47;1.30;;;0.40;;
43311;SDS011;30041;48.300;16.352;2022-09-09T00:33:13;0.93;;;0.30;;
43311;SDS011;30041;48.300;16.352;2022-09-09T00:35:44;1.38;;;0.45;;
43311;SDS011;30041;48.300;16.352;2022-09-09T00:38:15;0.50;;;0.10;;
43311;SDS011;30041;48.300;16.352;2022-09-09T00:41:03;1.13;;;0.20;;
43311;SDS011;30041;48.300;16.352;2022-09-09T00:43:37;0.60;;;0.30;;
43311;SDS011;30041;48.300;16.352;2022-09-09T00:49:13;1.45;;;0.40;;
43311;SDS011;30041;48.300;16.352;2022-09-09T00:57:31;0.95;;;0.40;;
43311;SDS011;30041;48.300;16.352;2022-09-09T01:05:46;1.42;;;0.40;;
43311;SDS011;30041;48.300;16.352;2022-09-09T01:11:07;2.33;;;0.30;;
43311;SDS011;30041;48.300;16.352;2022-09-09T01:13:40;1.00;;;0.30;;
43311;SDS011;30041;48.300;16.352;2022-09-09T01:16:09;0.57;;;0.28;;
43311;SDS011;30041;48.300;16.352;2022-09-09T01:18:46;1.77;;;0.35;;
43311;SDS011;30041;48.300;16.352;2022-09-09T01:21:34;1.70;;;0.20;;
43311;SDS011;30041;48.300;16.352;2022-09-09T01:24:15;1.52;;;0.50;;
43311;SDS011;30041;48.300;16.352;2022-09-09T01:26:54;1.55;;;0.43;;
43311;SDS011;30041;48.300;16.352;2022-09-09T01:29:25;1.52;;;0.40;;
43311;SDS011;30041;48.300;16.352;2022-09-09T01:31:52;1.45;;;0.50;;
43311;SDS011;30041;48.300;16.352;2022-09-09T01:34:20;2.22;;;0.40;;
43311;SDS011;30041;48.300;16.352;2022-09-09T01:39:15;1.40;;;0.30;;
43311;SDS011;30041;48.300;16.352;2022-09-09T01:41:41;1.65;;;0.50;;
43311;SDS011;30041;48.300;16.352;2022-09-09T01:44:06;2.03;;;0.50;;
43311;SDS011;30041;48.300;16.352;2022-09-09T01:46:33;0.43;;;0.35;;
43311;SDS011;30041;48.300;16.352;2022-09-09T01:48:59;1.83;;;0.50;;
43311;SDS011;30041;48.300;16.352;2022-09-09T01:51:28;1.83;;;0.38;;
43311;SDS011;30041;48.300;16.352;2022-09-09T01:53:53;1.83;;;0.60;;
43311;SDS011;30041;48.300;16.352;2022-09-09T02:02:08;1.25;;;0.40;;
43311;SDS011;30041;48.300;16.352;2022-09-09T02:04:48;0.40;;;0.20;;
43311;SDS011;30041;48.300;16.352;2022-09-09T02:07:28;0.80;;;0.30;;
43311;SDS011;30041;48.300;16.352;2022-09-09T02:10:31;1.42;;;0.32;;
43311;SDS011;30041;48.300;16.352;2022-09-09T02:13:19;1.17;;;0.40;;
43311;SDS011;30041;48.300;16.352;2022-09-09T02:15:52;0.52;;;0.22;;
43311;SDS011;30041;48.300;16.352;2022-09-09T02:18:35;1.65;;;0.38;;
43311;SDS011;30041;48.300;16.352;2022-09-09T02:21:07;0.95;;;0.38;;
43311;SDS011;30041;48.300;16.352;2022-09-09T02:23:36;2.15;;;0.30;;
43311;SDS011;30041;48.300;16.352;2022-09-09T02:26:04;1.40;;;0.35;;
43311;SDS011;30041;48.300;16.352;2022-09-09T02:28:31;3.13;;;0.55;;
43311;SDS011;30041;48.300;16.352;2022-09-09T02:30:58;1.80;;;0.40;;
43311;SDS011;30041;48.300;16.352;2022-09-09T02:33:26;1.08;;;0.30;;
43311;SDS011;30041;48.300;16.352;2022-09-09T02:35:55;1.10;;;0.40;;
43311;SDS011;30041;48.300;16.352;2022-09-09T02:38:21;2.65;;;0.30;;
43311;SDS011;30041;48.300;16.352;2022-09-09T02:40:51;2.50;;;0.50;;
43311;SDS011;30041;48.300;16.352;2022-09-09T02:43:16;3.05;;;0.50;;
43311;SDS011;30041;48.300;16.352;2022-09-09T02:45:47;2.65;;;0.40;;
43311;SDS011;30041;48.300;16.352;2022-09-09T02:53:59;1.45;;;0.30;;
43311;SDS011;30041;48.300;16.352;2022-09-09T02:56:42;3.08;;;0.50;;
43311;SDS011;30041;48.300;16.352;2022-09-09T02:59:14;0.80;;;0.38;;
43311;SDS011;30041;48.300;16.352;2022-09-09T03:01:40;1.65;;;0.40;;
43311;SDS011;30041;48.300;16.352;2022-09-09T03:04:05;2.20;;;0.40;;
43311;SDS011;30041;48.300;16.352;2022-09-09T03:06:31;2.40;;;0.63;;
43311;SDS011;30041;48.300;16.352;2022-09-09T03:08:57;1.83;;;0.50;;
43311;SDS011;30041;48.300;16.352;2022-09-09T03:11:22;2.75;;;0.50;;
43311;SDS011;30041;48.300;16.352;2022-09-09T03:13:47;4.05;;;0.73;;
43311;SDS011;30041;48.300;16.352;2022-09-09T03:16:13;2.15;;;0.50;;
43311;SDS011;30041;48.300;16.352;2022-09-09T03:18:38;2.22;;;0.40;;
43311;SDS011;30041;48.300;16.352;2022-09-09T03:21:04;0.32;;;0.20;;
43311;SDS011;30041;48.300;16.352;2022-09-09T03:23:29;1.70;;;0.38;;
43311;SDS011;30041;48.300;16.352;2022-09-09T03:25:55;2.95;;;0.40;;
43311;SDS011;30041;48.300;16.352;2022-09-09T03:28:20;2.33;;;0.55;;
43311;SDS011;30041;48.300;16.352;2022-09-09T03:30:46;0.75;;;0.40;;
43311;SDS011;30041;48.300;16.352;2022-09-09T03:33:11;1.75;;;0.30;;
43311;SDS011;30041;48.300;16.352;2022-09-09T03:35:37;1.05;;;0.43;;
43311;SDS011;30041;48.300;16.352;2022-09-09T03:38:02;3.58;;;0.50;;
43311;SDS011;30041;48.300;16.352;2022-09-09T03:40:28;0.90;;;0.40;;
43311;SDS011;30041;48.300;16.352;2022-09-09T03:42:53;1.27;;;0.40;;
43311;SDS011;30041;48.300;16.352;2022-09-09T03:45:18;1.05;;;0.40;;
43311;SDS011;30041;48.300;16.352;2022-09-09T03:47:44;0.90;;;0.43;;
43311;SDS011;30041;48.300;16.352;2022-09-09T03:50:10;2.85;;;0.50;;
43311;SDS011;30041;48.300;16.352;2022-09-09T03:52:36;2.05;;;0.60;;
43311;SDS011;30041;48.300;16.352;2022-09-09T03:55:03;1.15;;;0.50;;
43311;SDS011;30041;48.300;16.352;2022-09-09T03:57:30;1.65;;;0.60;;
43311;SDS011;30041;48.300;16.352;2022-09-09T03:59:56;1.50;;;0.50;;
43311;SDS011;30041;48.300;16.352;2022-09-09T04:02:21;1.75;;;0.63;;
43311;SDS011;30041;48.300;16.352;2022-09-09T04:04:47;2.13;;;0.52;;
43311;SDS011;30041;48.300;16.352;2022-09-09T04:07:12;2.35;;;0.47;;
43311;SDS011;30041;48.300;16.352;2022-09-09T04:09:38;1.15;;;0.60;;
43311;SDS011;30041;48.300;16.352;2022-09-09T04:12:03;1.95;;;0.60;;
43311;SDS011;30041;48.300;16.352;2022-09-09T04:14:29;2.20;;;0.60;;
43311;SDS011;30041;48.300;16.352;2022-09-09T04:16:55;0.65;;;0.30;;
43311;SDS011;30041;48.300;16.352;2022-09-09T04:19:21;2.53;;;0.57;;
43311;SDS011;30041;48.300;16.352;2022-09-09T04:21:46;3.67;;;1.08;;
43311;SDS011;30041;48.300;16.352;2022-09-09T04:24:12;3.65;;;1.70;;
43311;SDS011;30041;48.300;16.352;2022-09-09T04:26:38;2.30;;;0.90;;
43311;SDS011;30041;48.300;16.352;2022-09-09T04:29:03;1.40;;;0.80;;
43311;SDS011;30041;48.300;16.352;2022-09-09T04:31:29;2.25;;;1.10;;
43311;SDS011;30041;48.300;16.352;2022-09-09T04:33:55;1.63;;;0.70;;
43311;SDS011;30041;48.300;16.352;2022-09-09T04:36:20;2.03;;;0.73;;
43311;SDS011;30041;48.300;16.352;2022-09-09T04:38:46;2.35;;;0.63;;
43311;SDS011;30041;48.300;16.352;2022-09-09T04:41:12;2.92;;;0.80;;
43311;SDS011;30041;48.300;16.352;2022-09-09T04:43:38;1.05;;;0.60;;
43311;SDS011;30041;48.300;16.352;2022-09-09T04:46:04;3.78;;;0.63;;
43311;SDS011;30041;48.300;16.352;2022-09-09T04:48:30;2.63;;;0.85;;
43311;SDS011;30041;48.300;16.352;2022-09-09T04:50:59;2.20;;;0.55;;
43311;SDS011;30041;48.300;16.352;2022-09-09T04:53:29;3.08;;;0.80;;
43311;SDS011;30041;48.300;16.352;2022-09-09T04:56:01;8.70;;;1.70;;
43311;SDS011;30041;48.300;16.352;2022-09-09T04:58:32;7.07;;;1.13;;
43311;SDS011;30041;48.300;16.352;2022-09-09T05:03:34;12.02;;;1.48;;
43311;SDS011;30041;48.300;16.352;2022-09-09T05:06:03;7.70;;;1.23;;
43311;SDS011;30041;48.300;16.352;2022-09-09T05:08:30;6.22;;;1.00;;
43311;SDS011;30041;48.300;16.352;2022-09-09T05:10:55;2.90;;;0.80;;
43311;SDS011;30041;48.300;16.352;2022-09-09T05:13:20;4.78;;;0.80;;
43311;SDS011;30041;48.300;16.352;2022-09-09T05:15:52;6.82;;;0.85;;
43311;SDS011;30041;48.300;16.352;2022-09-09T05:18:18;2.15;;;0.75;;
43311;SDS011;30041;48.300;16.352;2022-09-09T05:20:44;4.13;;;0.70;;
43311;SDS011;30041;48.300;16.352;2022-09-09T05:23:09;1.55;;;0.80;;
43311;SDS011;30041;48.300;16.352;2022-09-09T05:25:35;3.72;;;0.70;;
43311;SDS011;30041;48.300;16.352;2022-09-09T05:28:00;4.68;;;0.90;;
43311;SDS011;30041;48.300;16.352;2022-09-09T05:30:26;3.72;;;0.70;;
43311;SDS011;30041;48.300;16.352;2022-09-09T05:32:51;2.42;;;0.52;;
43311;SDS011;30041;48.300;16.352;2022-09-09T05:35:17;1.55;;;0.70;;
43311;SDS011;30041;48.300;16.352;2022-09-09T05:37:42;3.63;;;1.00;;
43311;SDS011;30041;48.300;16.352;2022-09-09T05:40:08;2.85;;;0.77;;
43311;SDS011;30041;48.300;16.352;2022-09-09T05:42:33;4.20;;;0.73;;
43311;SDS011;30041;48.300;16.352;2022-09-09T05:44:59;2.83;;;0.60;;
43311;SDS011;30041;48.300;16.352;2022-09-09T05:47:24;2.97;;;0.80;;
43311;SDS011;30041;48.300;16.352;2022-09-09T05:49:50;7.50;;;0.90;;
43311;SDS011;30041;48.300;16.352;2022-09-09T05:52:15;5.57;;;0.82;;
43311;SDS011;30041;48.300;16.352;2022-09-09T05:54:41;5.00;;;0.95;;
43311;SDS011;30041;48.300;16.352;2022-09-09T05:57:06;3.63;;;1.00;;
43311;SDS011;30041;48.300;16.352;2022-09-09T05:59:31;8.57;;;0.70;;
43311;SDS011;30041;48.300;16.352;2022-09-09T06:01:57;1.65;;;0.70;;
43311;SDS011;30041;48.300;16.352;2022-09-09T06:04:22;5.75;;;0.73;;
43311;SDS011;30041;48.300;16.352;2022-09-09T06:06:48;3.13;;;0.80;;
43311;SDS011;30041;48.300;16.352;2022-09-09T06:09:13;2.15;;;0.60;;
43311;SDS011;30041;48.300;16.352;2022-09-09T06:11:39;4.05;;;0.80;;
43311;SDS011;30041;48.300;16.352;2022-09-09T06:14:05;1.85;;;0.60;;
43311;SDS011;30041;48.300;16.352;2022-09-09T06:16:34;2.08;;;0.68;;
43311;SDS011;30041;48.300;16.352;2022-09-09T06:19:00;1.60;;;0.60;;
43311;SDS011;30041;48.300;16.352;2022-09-09T06:21:29;2.47;;;0.52;;
43311;SDS011;30041;48.300;16.352;2022-09-09T06:23:56;9.23;;;1.05;;
43311;SDS011;30041;48.300;16.352;2022-09-09T06:26:26;6.97;;;0.77;;
43311;SDS011;30041;48.300;16.352;2022-09-09T06:29:05;4.00;;;0.80;;
43311;SDS011;30041;48.300;16.352;2022-09-09T06:31:32;3.42;;;0.80;;
43311;SDS011;30041;48.300;16.352;2022-09-09T06:33:59;6.68;;;0.85;;
43311;SDS011;30041;48.300;16.352;2022-09-09T06:36:29;2.17;;;0.70;;
43311;SDS011;30041;48.300;16.352;2022-09-09T06:38:56;8.65;;;0.88;;
43311;SDS011;30041;48.300;16.352;2022-09-09T06:41:23;2.03;;;0.70;;
43311;SDS011;30041;48.300;16.352;2022-09-09T06:43:50;7.32;;;0.75;;
43311;SDS011;30041;48.300;16.352;2022-09-09T06:46:17;2.67;;;0.60;;
43311;SDS011;30041;48.300;16.352;2022-09-09T06:48:46;5.18;;;1.00;;
43311;SDS011;30041;48.300;16.352;2022-09-09T06:53:38;6.03;;;0.85;;
43311;SDS011;30041;48.300;16.352;2022-09-09T06:58:44;3.83;;;0.73;;
43311;SDS011;30041;48.300;16.352;2022-09-09T07:01:11;4.05;;;0.73;;
43311;SDS011;30041;48.300;16.352;2022-09-09T07:03:39;2.05;;;0.60;;
43311;SDS011;30041;48.300;16.352;2022-09-09T07:06:06;5.15;;;0.90;;
43311;SDS011;30041;48.300;16.352;2022-09-09T07:08:32;1.88;;;0.52;;
43311;SDS011;30041;48.300;16.352;2022-09-09T07:11:07;3.58;;;1.00;;
43311;SDS011;30041;48.300;16.352;2022-09-09T07:13:34;5.00;;;1.00;;
43311;SDS011;30041;48.300;16.352;2022-09-09T07:16:03;2.88;;;0.98;;
43311;SDS011;30041;48.300;16.352;2022-09-09T07:18:33;5.78;;;1.00;;
43311;SDS011;30041;48.300;16.352;2022-09-09T07:20:59;4.82;;;1.00;;
43311;SDS011;30041;48.300;16.352;2022-09-09T07:23:25;5.25;;;1.17;;
43311;SDS011;30041;48.300;16.352;2022-09-09T07:25:50;5.07;;;0.90;;
43311;SDS011;30041;48.300;16.352;2022-09-09T07:28:16;6.50;;;0.90;;
43311;SDS011;30041;48.300;16.352;2022-09-09T07:30:42;3.88;;;1.00;;
43311;SDS011;30041;48.300;16.352;2022-09-09T07:33:08;2.78;;;0.90;;
43311;SDS011;30041;48.300;16.352;2022-09-09T07:35:34;6.53;;;0.80;;
43311;SDS011;30041;48.300;16.352;2022-09-09T07:38:00;4.80;;;0.75;;
43311;SDS011;30041;48.300;16.352;2022-09-09T07:40:26;2.28;;;0.80;;
43311;SDS011;30041;48.300;16.352;2022-09-09T07:42:51;2.72;;;0.80;;
43311;SDS011;30041;48.300;16.352;2022-09-09T07:45:16;0.95;;;0.50;;
43311;SDS011;30041;48.300;16.352;2022-09-09T07:47:42;1.98;;;0.90;;
43311;SDS011;30041;48.300;16.352;2022-09-09T07:50:08;2.53;;;0.80;;
43311;SDS011;30041;48.300;16.352;2022-09-09T07:52:34;3.63;;;0.77;;
43311;SDS011;30041;48.300;16.352;2022-09-09T07:55:01;4.32;;;1.00;;
43311;SDS011;30041;48.300;16.352;2022-09-09T07:57:26;3.08;;;0.98;;
43311;SDS011;30041;48.300;16.352;2022-09-09T07:59:52;1.90;;;0.82;;
43311;SDS011;30041;48.300;16.352;2022-09-09T08:02:17;2.47;;;0.90;;
43311;SDS011;30041;48.300;16.352;2022-09-09T08:04:43;3.30;;;0.90;;
43311;SDS011;30041;48.300;16.352;2022-09-09T08:07:08;5.80;;;1.02;;
43311;SDS011;30041;48.300;16.352;2022-09-09T08:09:33;1.85;;;0.73;;
43311;SDS011;30041;48.300;16.352;2022-09-09T08:11:59;4.40;;;0.77;;
43311;SDS011;30041;48.300;16.352;2022-09-09T08:14:25;4.05;;;0.73;;
43311;SDS011;30041;48.300;16.352;2022-09-09T08:16:50;4.38;;;1.08;;
43311;SDS011;30041;48.300;16.352;2022-09-09T08:19:16;6.13;;;0.88;;
43311;SDS011;30041;48.300;16.352;2022-09-09T08:21:42;22.40;;;1.50;;
43311;SDS011;30041;48.300;16.352;2022-09-09T08:24:09;6.13;;;1.00;;
43311;SDS011;30041;48.300;16.352;2022-09-09T08:26:37;6.10;;;0.75;;
43311;SDS011;30041;48.300;16.352;2022-09-09T08:29:04;4.50;;;0.80;;
43311;SDS011;30041;48.300;16.352;2022-09-09T08:31:32;9.10;;;1.20;;
43311;SDS011;30041;48.300;16.352;2022-09-09T08:34:00;3.70;;;0.80;;
43311;SDS011;30041;48.300;16.352;2022-09-09T08:36:28;5.05;;;1.10;;
43311;SDS011;30041;48.300;16.352;2022-09-09T08:38:56;3.75;;;0.88;;
43311;SDS011;30041;48.300;16.352;2022-09-09T08:41:29;5.38;;;0.90;;
43311;SDS011;30041;48.300;16.352;2022-09-09T08:57:57;3.08;;;0.90;;
43311;SDS011;30041;48.300;16.352;2022-09-09T09:00:29;1.98;;;0.63;;
43311;SDS011;30041;48.300;16.352;2022-09-09T09:03:06;3.53;;;0.77;;
43311;SDS011;30041;48.300;16.352;2022-09-09T09:05:54;3.63;;;1.00;;
43311;SDS011;30041;48.300;16.352;2022-09-09T09:11:02;3.97;;;0.70;;
43311;SDS011;30041;48.300;16.352;2022-09-09T09:15:58;4.47;;;0.80;;
43311;SDS011;30041;48.300;16.352;2022-09-09T09:18:34;2.20;;;0.80;;
43311;SDS011;30041;48.300;16.352;2022-09-09T09:21:11;1.67;;;0.55;;
43311;SDS011;30041;48.300;16.352;2022-09-09T09:23:40;4.07;;;0.90;;
43311;SDS011;30041;48.300;16.352;2022-09-09T09:26:10;3.45;;;0.80;;
43311;SDS011;30041;48.300;16.352;2022-09-09T09:28:35;2.80;;;0.73;;
43311;SDS011;30041;48.300;16.352;2022-09-09T09:31:11;3.75;;;0.90;;
43311;SDS011;30041;48.300;16.352;2022-09-09T09:33:42;4.05;;;0.90;;
43311;SDS011;30041;48.300;16.352;2022-09-09T09:36:12;5.88;;;0.90;;
43311;SDS011;30041;48.300;16.352;2022-09-09T09:38:38;3.33;;;1.00;;
43311;SDS011;30041;48.300;16.352;2022-09-09T09:41:03;6.75;;;1.10;;
43311;SDS011;30041;48.300;16.352;2022-09-09T09:46:17;2.28;;;0.68;;
43311;SDS011;30041;48.300;16.352;2022-09-09T09:48:45;3.95;;;0.90;;
43311;SDS011;30041;48.300;16.352;2022-09-09T09:51:21;2.35;;;0.85;;
43311;SDS011;30041;48.300;16.352;2022-09-09T09:53:49;3.67;;;1.10;;
43311;SDS011;30041;48.300;16.352;2022-09-09T09:56:14;2.38;;;0.90;;
43311;SDS011;30041;48.300;16.352;2022-09-09T10:01:25;2.88;;;0.82;;
43311;SDS011;30041;48.300;16.352;2022-09-09T10:04:02;7.15;;;1.30;;
43311;SDS011;30041;48.300;16.352;2022-09-09T10:06:39;5.55;;;1.30;;
43311;SDS011;30041;48.300;16.352;2022-09-09T10:09:20;7.90;;;0.90;;
43311;SDS011;30041;48.300;16.352;2022-09-09T10:14:39;8.00;;;1.08;;
43311;SDS011;30041;48.300;16.352;2022-09-09T10:22:35;4.85;;;1.15;;
43311;SDS011;30041;48.300;16.352;2022-09-09T10:25:16;5.97;;;1.00;;
43311;SDS011;30041;48.300;16.352;2022-09-09T10:28:24;4.32;;;1.10;;
43311;SDS011;30041;48.300;16.352;2022-09-09T10:31:17;4.82;;;0.88;;
43311;SDS011;30041;48.300;16.352;2022-09-09T10:36:34;6.53;;;1.00;;
43311;SDS011;30041;48.300;16.352;2022-09-09T10:39:51;8.25;;;1.20;;
43311;SDS011;30041;48.300;16.352;2022-09-09T10:42:06;9.48;;;1.25;;
43311;SDS011;30041;48.300;16.352;2022-09-09T10:53:11;3.60;;;1.00;;
43311;SDS011;30041;48.300;16.352;2022-09-09T10:55:51;3.90;;;1.00;;
43311;SDS011;30041;48.300;16.352;2022-09-09T10:58:23;4.75;;;0.82;;
43311;SDS011;30041;48.300;16.352;2022-09-09T11:00:56;3.35;;;0.73;;
43311;SDS011;30041;48.300;16.352;2022-09-09T11:03:26;2.58;;;0.90;;
43311;SDS011;30041;48.300;16.352;2022-09-09T11:06:07;7.85;;;1.00;;
43311;SDS011;30041;48.300;16.352;2022-09-09T11:08:46;8.05;;;1.00;;
43311;SDS011;30041;48.300;16.352;2022-09-09T11:11:14;6.60;;;1.05;;
43311;SDS011;30041;48.300;16.352;2022-09-09T11:16:25;4.32;;;0.90;;
43311;SDS011;30041;48.300;16.352;2022-09-09T11:18:55;3.85;;;0.70;;
43311;SDS011;30041;48.300;16.352;2022-09-09T11:21:27;2.38;;;0.70;;
43311;SDS011;30041;48.300;16.352;2022-09-09T11:24:10;3.28;;;0.80;;
43311;SDS011;30041;48.300;16.352;2022-09-09T11:26:45;5.65;;;0.90;;
43311;SDS011;30041;48.300;16.352;2022-09-09T11:32:27;2.40;;;0.60;;
43311;SDS011;30041;48.300;16.352;2022-09-09T11:38:19;4.88;;;1.00;;
43311;SDS011;30041;48.300;16.352;2022-09-09T11:41:07;6.82;;;1.05;;
43311;SDS011;30041;48.300;16.352;2022-09-09T11:46:15;5.22;;;0.90;;
43311;SDS011;30041;48.300;16.352;2022-09-09T11:53:51;5.65;;;1.00;;
43311;SDS011;30041;48.300;16.352;2022-09-09T11:56:45;5.05;;;0.85;;
43311;SDS011;30041;48.300;16.352;2022-09-09T11:59:21;3.05;;;0.88;;
43311;SDS011;30041;48.300;16.352;2022-09-09T12:10:35;3.60;;;0.68;;
43311;SDS011;30041;48.300;16.352;2022-09-09T12:13:15;2.30;;;0.65;;
43311;SDS011;30041;48.300;16.352;2022-09-09T12:18:15;5.68;;;0.82;;
43311;SDS011;30041;48.300;16.352;2022-09-09T12:21:06;3.78;;;0.80;;
43311;SDS011;30041;48.300;16.352;2022-09-09T12:34:39;5.88;;;0.77;;
43311;SDS011;30041;48.300;16.352;2022-09-09T12:37:19;6.13;;;0.90;;
43311;SDS011;30041;48.300;16.352;2022-09-09T12:39:52;5.22;;;0.80;;
43311;SDS011;30041;48.300;16.352;2022-09-09T12:42:24;2.40;;;0.70;;
43311;SDS011;30041;48.300;16.352;2022-09-09T12:45:00;5.20;;;0.90;;
43311;SDS011;30041;48.300;16.352;2022-09-09T12:50:15;3.78;;;0.80;;
43311;SDS011;30041;48.300;16.352;2022-09-09T12:52:43;5.40;;;0.95;;
43311;SDS011;30041;48.300;16.352;2022-09-09T12:55:16;2.58;;;0.70;;
43311;SDS011;30041;48.300;16.352;2022-09-09T12:57:46;3.10;;;0.60;;
43311;SDS011;30041;48.300;16.352;2022-09-09T13:00:16;19.70;;;1.83;;
43311;SDS011;30041;48.300;16.352;2022-09-09T13:02:48;17.38;;;1.50;;
43311;SDS011;30041;48.300;16.352;2022-09-09T13:05:20;17.08;;;2.00;;
43311;SDS011;30041;48.300;16.352;2022-09-09T13:07:46;13.80;;;1.40;;
43311;SDS011;30041;48.300;16.352;2022-09-09T13:10:13;18.25;;;2.08;;
43311;SDS011;30041;48.300;16.352;2022-09-09T13:13:00;12.27;;;1.65;;
43311;SDS011;30041;48.300;16.352;2022-09-09T13:15:26;10.52;;;1.40;;
43311;SDS011;30041;48.300;16.352;2022-09-09T13:17:55;26.60;;;1.52;;
43311;SDS011;30041;48.300;16.352;2022-09-09T13:20:26;13.90;;;1.95;;
43311;SDS011;30041;48.300;16.352;2022-09-09T13:22:53;17.90;;;3.00;;
43311;SDS011;30041;48.300;16.352;2022-09-09T13:25:24;13.07;;;2.00;;
43311;SDS011;30041;48.300;16.352;2022-09-09T13:28:01;9.52;;;1.55;;
43311;SDS011;30041;48.300;16.352;2022-09-09T13:33:01;11.35;;;2.10;;
43311;SDS011;30041;48.300;16.352;2022-09-09T13:35:31;6.70;;;1.40;;
43311;SDS011;30041;48.300;16.352;2022-09-09T13:37:58;7.57;;;1.27;;
43311;SDS011;30041;48.300;16.352;2022-09-09T13:40:38;7.22;;;1.70;;
43311;SDS011;30041;48.300;16.352;2022-09-09T13:43:04;5.60;;;1.25;;
43311;SDS011;30041;48.300;16.352;2022-09-09T13:45:29;7.10;;;1.30;;
43311;SDS011;30041;48.300;16.352;2022-09-09T13:47:55;5.25;;;1.13;;
43311;SDS011;30041;48.300;16.352;2022-09-09T13:50:22;4.40;;;1.10;;
43311;SDS011;30041;48.300;16.352;2022-09-09T13:52:53;3.83;;;1.10;;
43311;SDS011;30041;48.300;16.352;2022-09-09T13:55:20;7.95;;;1.15;;
43311;SDS011;30041;48.300;16.352;2022-09-09T13:58:00;6.35;;;0.90;;
43311;SDS011;30041;48.300;16.352;2022-09-09T14:00:31;7.55;;;1.17;;
43311;SDS011;30041;48.300;16.352;2022-09-09T14:02:58;3.95;;;0.90;;
43311;SDS011;30041;48.300;16.352;2022-09-09T14:05:24;5.00;;;0.90;;
43311;SDS011;30041;48.300;16.352;2022-09-09T14:07:50;3.40;;;0.70;;
43311;SDS011;30041;48.300;16.352;2022-09-09T14:10:15;3.65;;;0.77;;
43311;SDS011;30041;48.300;16.352;2022-09-09T14:12:43;3.08;;;0.75;;
43311;SDS011;30041;48.300;16.352;2022-09-09T14:15:09;4.82;;;0.90;;
43311;SDS011;30041;48.300;16.352;2022-09-09T14:17:36;2.17;;;0.70;;
43311;SDS011;30041;48.300;16.352;2022-09-09T14:20:03;5.05;;;0.98;;
43311;SDS011;30041;48.300;16.352;2022-09-09T14:22:29;3.58;;;0.98;;
43311;SDS011;30041;48.300;16.352;2022-09-09T14:24:54;2.85;;;0.90;;
43311;SDS011;30041;48.300;16.352;2022-09-09T14:27:25;4.20;;;0.82;;
43311;SDS011;30041;48.300;16.352;2022-09-09T14:29:51;5.13;;;0.90;;
43311;SDS011;30041;48.300;16.352;2022-09-09T14:32:16;6.55;;;1.13;;
43311;SDS011;30041;48.300;16.352;2022-09-09T14:34:44;2.13;;;0.88;;
43311;SDS011;30041;48.300;16.352;2022-09-09T14:37:09;2.50;;;0.80;;
43311;SDS011;30041;48.300;16.352;2022-09-09T14:39:37;3.35;;;0.82;;
43311;SDS011;30041;48.300;16.352;2022-09-09T14:42:05;4.05;;;0.90;;
43311;SDS011;30041;48.300;16.352;2022-09-09T14:44:30;4.88;;;1.10;;
43311;SDS011;30041;48.300;16.352;2022-09-09T14:46:56;4.18;;;0.90;;
43311;SDS011;30041;48.300;16.352;2022-09-09T14:49:21;6.13;;;1.02;;
43311;SDS011;30041;48.300;16.352;2022-09-09T14:51:47;4.85;;;0.77;;
43311;SDS011;30041;48.300;16.352;2022-09-09T14:54:12;5.43;;;0.90;;
43311;SDS011;30041;48.300;16.352;2022-09-09T14:56:37;3.75;;;0.80;;
43311;SDS011;30041;48.300;16.352;2022-09-09T14:59:03;1.40;;;0.60;;
43311;SDS011;30041;48.300;16.352;2022-09-09T15:01:29;2.47;;;0.75;;
43311;SDS011;30041;48.300;16.352;2022-09-09T15:03:57;3.15;;;0.77;;
43311;SDS011;30041;48.300;16.352;2022-09-09T15:06:24;1.75;;;0.70;;
43311;SDS011;30041;48.300;16.352;2022-09-09T15:08:53;2.95;;;0.70;;
43311;SDS011;30041;48.300;16.352;2022-09-09T15:11:19;2.67;;;0.70;;
43311;SDS011;30041;48.300;16.352;2022-09-09T15:13:45;3.45;;;0.82;;
43311;SDS011;30041;48.300;16.352;2022-09-09T15:16:12;1.45;;;0.73;;
43311;SDS011;30041;48.300;16.352;2022-09-09T15:18:39;2.30;;;0.80;;
43311;SDS011;30041;48.300;16.352;2022-09-09T15:21:05;2.58;;;0.80;;
43311;SDS011;30041;48.300;16.352;2022-09-09T15:23:34;3.08;;;0.80;;
43311;SDS011;30041;48.300;16.352;2022-09-09T15:26:01;2.58;;;1.08;;
43311;SDS011;30041;48.300;16.352;2022-09-09T15:28:27;2.83;;;0.75;;
43311;SDS011;30041;48.300;16.352;2022-09-09T15:30:53;2.83;;;1.00;;
43311;SDS011;30041;48.300;16.352;2022-09-09T15:33:20;16.55;;;1.70;;
43311;SDS011;30041;48.300;16.352;2022-09-09T15:35:47;17.40;;;1.30;;
43311;SDS011;30041;48.300;16.352;2022-09-09T15:38:13;6.45;;;1.08;;
43311;SDS011;30041;48.300;16.352;2022-09-09T15:40:39;3.80;;;1.10;;
43311;SDS011;30041;48.300;16.352;2022-09-09T15:43:05;2.95;;;0.90;;
43311;SDS011;30041;48.300;16.352;2022-09-09T15:45:31;4.03;;;0.85;;
43311;SDS011;30041;48.300;16.352;2022-09-09T15:47:57;2.85;;;1.10;;
43311;SDS011;30041;48.300;16.352;2022-09-09T15:50:23;6.18;;;1.00;;
43311;SDS011;30041;48.300;16.352;2022-09-09T15:52:48;7.18;;;1.10;;
43311;SDS011;30041;48.300;16.352;2022-09-09T15:55:16;9.57;;;1.25;;
43311;SDS011;30041;48.300;16.352;2022-09-09T15:57:41;16.63;;;1.50;;
43311;SDS011;30041;48.300;16.352;2022-09-09T16:00:07;8.68;;;1.20;;
43311;SDS011;30041;48.300;16.352;2022-09-09T16:02:33;8.85;;;1.48;;
43311;SDS011;30041;48.300;16.352;2022-09-09T16:04:59;4.97;;;1.02;;
43311;SDS011;30041;48.300;16.352;2022-09-09T16:07:24;3.40;;;0.63;;
43311;SDS011;30041;48.300;16.352;2022-09-09T16:09:50;4.03;;;0.80;;
43311;SDS011;30041;48.300;16.352;2022-09-09T16:12:15;2.60;;;0.80;;
43311;SDS011;30041;48.300;16.352;2022-09-09T16:14:41;2.42;;;0.93;;
43311;SDS011;30041;48.300;16.352;2022-09-09T16:17:09;12.43;;;1.30;;
43311;SDS011;30041;48.300;16.352;2022-09-09T16:19:37;7.22;;;1.05;;
43311;SDS011;30041;48.300;16.352;2022-09-09T16:22:03;6.95;;;0.88;;
43311;SDS011;30041;48.300;16.352;2022-09-09T16:24:29;7.85;;;1.10;;
43311;SDS011;30041;48.300;16.352;2022-09-09T16:26:54;8.23;;;1.35;;
43311;SDS011;30041;48.300;16.352;2022-09-09T16:29:21;8.63;;;1.10;;
43311;SDS011;30041;48.300;16.352;2022-09-09T16:31:47;5.30;;;1.00;;
43311;SDS011;30041;48.300;16.352;2022-09-09T16:34:14;4.65;;;0.90;;
43311;SDS011;30041;48.300;16.352;2022-09-09T16:36:42;7.43;;;1.45;;
43311;SDS011;30041;48.300;16.352;2022-09-09T16:39:09;5.20;;;1.40;;
43311;SDS011;30041;48.300;16.352;2022-09-09T16:41:37;4.63;;;1.00;;
43311;SDS011;30041;48.300;16.352;2022-09-09T16:44:07;5.60;;;0.80;;
43311;SDS011;30041;48.300;16.352;2022-09-09T16:46:35;5.00;;;1.00;;
43311;SDS011;30041;48.300;16.352;2022-09-09T16:49:03;2.67;;;0.75;;
43311;SDS011;30041;48.300;16.352;2022-09-09T16:51:31;4.03;;;0.85;;
43311;SDS011;30041;48.300;16.352;2022-09-09T16:54:02;5.30;;;0.80;;
43311;SDS011;30041;48.300;16.352;2022-09-09T16:56:30;2.20;;;0.70;;
43311;SDS011;30041;48.300;16.352;2022-09-09T16:58:58;4.50;;;0.95;;
43311;SDS011;30041;48.300;16.352;2022-09-09T17:01:26;3.05;;;0.80;;
43311;SDS011;30041;48.300;16.352;2022-09-09T17:03:56;2.22;;;0.70;;